Rechercher aéroport 
image banner adimage banner adimage banner ad
image banner ad

CA22 - Lauppes Strip

Situé à Sacramento, United States

ICAO - CA22, IATA -

Données fournies par Airmate  

Information générale

Coordonnées: N38°45'34" W121°35'7"
Élévation : 23 feet MSL.
Variation magnétique : 16° East
Voir autres Aéroports à California

Données opérationnelles

Special qualification required
Heure actuelle UTC:
Heure actuelle locale:
Météo à : KSMF - Sacramento Intl ( 7 km )
METAR: KSMF 292153Z 18003KT 10SM BKN250 37/12 A2981 RMK AO2 SLP094 T03720122
TAF: KSMF 291812Z 2918/3018 15005KT P6SM BKN200 FM292000 19008KT P6SM SCT250 FM301100 16005KT P6SM BKN150
Voir NOTAMs / SUP AIP / TFR affectant cet aéroport [VIEW]
Fréquences de communication: [VIEW]

Pistes:

Identifiant RWYQFULongueur (ft)Largeur (ft)SurfaceLDA (ft)
15200030EARTH
33200030EARTH

Coordonnées de l'aéroport

Adresse: Sacramento United States

Vue satellite de CA22